sensor_id;sensor_type;location;lat;lon;timestamp;P1;durP1;ratioP1;P2;durP2;ratioP2
57593;SDS011;43423;46.510;6.686;2023-02-28T00:01:13;11.68;;;6.43;;
57593;SDS011;43423;46.510;6.686;2023-02-28T00:03:40;12.07;;;6.47;;
57593;SDS011;43423;46.510;6.686;2023-02-28T00:06:06;13.88;;;7.18;;
57593;SDS011;43423;46.510;6.686;2023-02-28T00:08:32;11.77;;;6.63;;
57593;SDS011;43423;46.510;6.686;2023-02-28T00:11:06;13.07;;;7.00;;
57593;SDS011;43423;46.510;6.686;2023-02-28T00:13:37;9.65;;;5.97;;
57593;SDS011;43423;46.510;6.686;2023-02-28T00:16:09;11.70;;;6.97;;
57593;SDS011;43423;46.510;6.686;2023-02-28T00:18:36;12.45;;;5.97;;
57593;SDS011;43423;46.510;6.686;2023-02-28T00:21:02;11.82;;;6.70;;
57593;SDS011;43423;46.510;6.686;2023-02-28T00:23:28;10.90;;;6.50;;
57593;SDS011;43423;46.510;6.686;2023-02-28T00:25:53;10.13;;;6.65;;
57593;SDS011;43423;46.510;6.686;2023-02-28T00:28:19;11.60;;;6.82;;
57593;SDS011;43423;46.510;6.686;2023-02-28T00:30:45;10.27;;;6.43;;
57593;SDS011;43423;46.510;6.686;2023-02-28T00:33:10;12.55;;;6.38;;
57593;SDS011;43423;46.510;6.686;2023-02-28T00:35:36;12.75;;;7.05;;
57593;SDS011;43423;46.510;6.686;2023-02-28T00:38:02;9.00;;;6.38;;
57593;SDS011;43423;46.510;6.686;2023-02-28T00:40:28;11.75;;;7.18;;
57593;SDS011;43423;46.510;6.686;2023-02-28T00:42:53;15.07;;;7.20;;
57593;SDS011;43423;46.510;6.686;2023-02-28T00:45:19;10.00;;;6.40;;
57593;SDS011;43423;46.510;6.686;2023-02-28T00:47:44;11.15;;;7.18;;
57593;SDS011;43423;46.510;6.686;2023-02-28T00:50:12;10.43;;;6.20;;
57593;SDS011;43423;46.510;6.686;2023-02-28T00:52:37;11.93;;;6.97;;
57593;SDS011;43423;46.510;6.686;2023-02-28T00:55:03;11.77;;;6.85;;
57593;SDS011;43423;46.510;6.686;2023-02-28T00:57:29;11.35;;;7.55;;
57593;SDS011;43423;46.510;6.686;2023-02-28T00:59:55;12.48;;;7.05;;
57593;SDS011;43423;46.510;6.686;2023-02-28T01:02:21;13.52;;;6.90;;
57593;SDS011;43423;46.510;6.686;2023-02-28T01:04:48;11.52;;;7.03;;
57593;SDS011;43423;46.510;6.686;2023-02-28T01:07:14;10.65;;;6.55;;
57593;SDS011;43423;46.510;6.686;2023-02-28T01:09:40;12.40;;;6.82;;
57593;SDS011;43423;46.510;6.686;2023-02-28T01:12:06;11.23;;;6.28;;
57593;SDS011;43423;46.510;6.686;2023-02-28T01:14:33;12.02;;;7.40;;
57593;SDS011;43423;46.510;6.686;2023-02-28T01:16:59;9.23;;;6.70;;
57593;SDS011;43423;46.510;6.686;2023-02-28T01:19:26;12.10;;;7.13;;
57593;SDS011;43423;46.510;6.686;2023-02-28T01:21:51;14.02;;;6.57;;
57593;SDS011;43423;46.510;6.686;2023-02-28T01:24:17;13.05;;;7.07;;
57593;SDS011;43423;46.510;6.686;2023-02-28T01:26:42;13.75;;;7.85;;
57593;SDS011;43423;46.510;6.686;2023-02-28T01:29:08;13.50;;;7.55;;
57593;SDS011;43423;46.510;6.686;2023-02-28T01:31:33;12.30;;;7.75;;
57593;SDS011;43423;46.510;6.686;2023-02-28T01:33:59;14.50;;;7.53;;
57593;SDS011;43423;46.510;6.686;2023-02-28T01:36:25;11.55;;;7.20;;
57593;SDS011;43423;46.510;6.686;2023-02-28T01:38:51;13.10;;;6.88;;
57593;SDS011;43423;46.510;6.686;2023-02-28T01:46:13;10.98;;;7.00;;
57593;SDS011;43423;46.510;6.686;2023-02-28T01:48:51;14.40;;;7.93;;
57593;SDS011;43423;46.510;6.686;2023-02-28T01:51:21;14.48;;;7.68;;
57593;SDS011;43423;46.510;6.686;2023-02-28T01:53:55;10.90;;;7.15;;
57593;SDS011;43423;46.510;6.686;2023-02-28T01:58:53;10.45;;;7.15;;
57593;SDS011;43423;46.510;6.686;2023-02-28T02:01:20;14.70;;;6.53;;
57593;SDS011;43423;46.510;6.686;2023-02-28T02:03:59;15.50;;;8.45;;
57593;SDS011;43423;46.510;6.686;2023-02-28T02:06:29;13.13;;;6.82;;
57593;SDS011;43423;46.510;6.686;2023-02-28T02:08:59;13.60;;;7.20;;
57593;SDS011;43423;46.510;6.686;2023-02-28T02:11:24;12.32;;;7.45;;
57593;SDS011;43423;46.510;6.686;2023-02-28T02:13:58;12.97;;;8.00;;
57593;SDS011;43423;46.510;6.686;2023-02-28T02:16:33;16.40;;;7.72;;
57593;SDS011;43423;46.510;6.686;2023-02-28T02:29:54;15.00;;;7.20;;
57593;SDS011;43423;46.510;6.686;2023-02-28T02:38:03;10.82;;;7.13;;
57593;SDS011;43423;46.510;6.686;2023-02-28T02:40:38;12.18;;;6.97;;
57593;SDS011;43423;46.510;6.686;2023-02-28T02:43:31;10.85;;;7.20;;
57593;SDS011;43423;46.510;6.686;2023-02-28T02:46:23;12.95;;;6.82;;
57593;SDS011;43423;46.510;6.686;2023-02-28T02:48:55;12.13;;;6.78;;
57593;SDS011;43423;46.510;6.686;2023-02-28T02:51:23;9.23;;;6.80;;
57593;SDS011;43423;46.510;6.686;2023-02-28T02:53:50;12.20;;;7.97;;
57593;SDS011;43423;46.510;6.686;2023-02-28T02:56:21;13.10;;;7.00;;
57593;SDS011;43423;46.510;6.686;2023-02-28T02:58:50;17.50;;;7.80;;
57593;SDS011;43423;46.510;6.686;2023-02-28T03:01:20;13.88;;;6.70;;
57593;SDS011;43423;46.510;6.686;2023-02-28T03:04:02;12.43;;;7.32;;
57593;SDS011;43423;46.510;6.686;2023-02-28T03:06:32;12.10;;;7.68;;
57593;SDS011;43423;46.510;6.686;2023-02-28T03:08:59;13.38;;;7.65;;
57593;SDS011;43423;46.510;6.686;2023-02-28T03:11:25;12.85;;;7.50;;
57593;SDS011;43423;46.510;6.686;2023-02-28T03:14:11;16.40;;;7.72;;
57593;SDS011;43423;46.510;6.686;2023-02-28T03:19:45;12.23;;;7.07;;
57593;SDS011;43423;46.510;6.686;2023-02-28T03:25:48;12.57;;;7.68;;
57593;SDS011;43423;46.510;6.686;2023-02-28T03:28:26;11.60;;;7.57;;
57593;SDS011;43423;46.510;6.686;2023-02-28T03:31:16;15.05;;;7.78;;
57593;SDS011;43423;46.510;6.686;2023-02-28T03:33:49;11.48;;;7.32;;
57593;SDS011;43423;46.510;6.686;2023-02-28T03:36:21;13.90;;;7.90;;
57593;SDS011;43423;46.510;6.686;2023-02-28T03:41:25;12.77;;;7.55;;
57593;SDS011;43423;46.510;6.686;2023-02-28T03:43:58;12.80;;;7.38;;
57593;SDS011;43423;46.510;6.686;2023-02-28T03:46:30;11.60;;;7.00;;
57593;SDS011;43423;46.510;6.686;2023-02-28T03:49:07;13.35;;;7.30;;
57593;SDS011;43423;46.510;6.686;2023-02-28T03:51:39;13.35;;;8.10;;
57593;SDS011;43423;46.510;6.686;2023-02-28T03:54:09;13.20;;;7.25;;
57593;SDS011;43423;46.510;6.686;2023-02-28T03:57:07;14.52;;;8.15;;
57593;SDS011;43423;46.510;6.686;2023-02-28T03:59:45;12.25;;;7.45;;
57593;SDS011;43423;46.510;6.686;2023-02-28T04:02:15;13.68;;;8.27;;
57593;SDS011;43423;46.510;6.686;2023-02-28T04:04:41;14.48;;;8.23;;
57593;SDS011;43423;46.510;6.686;2023-02-28T04:07:13;14.50;;;8.07;;
57593;SDS011;43423;46.510;6.686;2023-02-28T04:09:39;13.55;;;8.38;;
57593;SDS011;43423;46.510;6.686;2023-02-28T04:12:06;14.23;;;7.70;;
57593;SDS011;43423;46.510;6.686;2023-02-28T04:14:32;12.77;;;7.63;;
57593;SDS011;43423;46.510;6.686;2023-02-28T04:16:57;13.35;;;8.38;;
57593;SDS011;43423;46.510;6.686;2023-02-28T04:19:23;12.00;;;7.53;;
57593;SDS011;43423;46.510;6.686;2023-02-28T04:21:50;13.10;;;7.40;;
57593;SDS011;43423;46.510;6.686;2023-02-28T04:24:18;14.30;;;7.20;;
57593;SDS011;43423;46.510;6.686;2023-02-28T04:26:47;15.02;;;8.68;;
57593;SDS011;43423;46.510;6.686;2023-02-28T04:29:18;16.38;;;7.35;;
57593;SDS011;43423;46.510;6.686;2023-02-28T04:31:48;13.60;;;8.23;;
57593;SDS011;43423;46.510;6.686;2023-02-28T04:34:14;13.38;;;7.70;;
57593;SDS011;43423;46.510;6.686;2023-02-28T04:36:39;12.63;;;7.43;;
57593;SDS011;43423;46.510;6.686;2023-02-28T04:39:05;15.75;;;8.18;;
57593;SDS011;43423;46.510;6.686;2023-02-28T04:41:31;12.88;;;8.18;;
57593;SDS011;43423;46.510;6.686;2023-02-28T04:43:56;14.40;;;7.25;;
57593;SDS011;43423;46.510;6.686;2023-02-28T04:46:22;15.38;;;7.97;;
57593;SDS011;43423;46.510;6.686;2023-02-28T04:48:48;12.88;;;7.57;;
57593;SDS011;43423;46.510;6.686;2023-02-28T04:51:14;13.88;;;8.50;;
57593;SDS011;43423;46.510;6.686;2023-02-28T04:53:42;15.52;;;8.55;;
57593;SDS011;43423;46.510;6.686;2023-02-28T04:56:09;11.68;;;7.25;;
57593;SDS011;43423;46.510;6.686;2023-02-28T04:58:40;12.82;;;7.82;;
57593;SDS011;43423;46.510;6.686;2023-02-28T05:01:13;15.80;;;8.15;;
57593;SDS011;43423;46.510;6.686;2023-02-28T05:03:40;12.82;;;7.72;;
57593;SDS011;43423;46.510;6.686;2023-02-28T05:06:06;12.02;;;7.97;;
57593;SDS011;43423;46.510;6.686;2023-02-28T05:08:33;11.40;;;7.90;;
57593;SDS011;43423;46.510;6.686;2023-02-28T05:10:58;15.95;;;8.27;;
57593;SDS011;43423;46.510;6.686;2023-02-28T05:13:26;16.13;;;9.10;;
57593;SDS011;43423;46.510;6.686;2023-02-28T05:15:52;15.18;;;8.57;;
57593;SDS011;43423;46.510;6.686;2023-02-28T05:18:18;17.08;;;8.38;;
57593;SDS011;43423;46.510;6.686;2023-02-28T05:20:44;13.90;;;7.90;;
57593;SDS011;43423;46.510;6.686;2023-02-28T05:23:12;12.73;;;7.57;;
57593;SDS011;43423;46.510;6.686;2023-02-28T05:25:40;15.65;;;7.47;;
57593;SDS011;43423;46.510;6.686;2023-02-28T05:28:06;12.57;;;8.35;;
57593;SDS011;43423;46.510;6.686;2023-02-28T05:30:31;14.43;;;8.10;;
57593;SDS011;43423;46.510;6.686;2023-02-28T05:32:57;13.90;;;7.82;;
57593;SDS011;43423;46.510;6.686;2023-02-28T05:35:23;16.02;;;7.93;;
57593;SDS011;43423;46.510;6.686;2023-02-28T05:37:49;15.75;;;8.05;;
57593;SDS011;43423;46.510;6.686;2023-02-28T05:40:15;13.80;;;7.45;;
57593;SDS011;43423;46.510;6.686;2023-02-28T05:42:41;16.42;;;7.88;;
57593;SDS011;43423;46.510;6.686;2023-02-28T05:45:06;13.57;;;7.70;;
57593;SDS011;43423;46.510;6.686;2023-02-28T05:47:33;11.85;;;7.63;;
57593;SDS011;43423;46.510;6.686;2023-02-28T05:49:59;15.77;;;8.50;;
57593;SDS011;43423;46.510;6.686;2023-02-28T05:52:25;16.48;;;7.50;;
57593;SDS011;43423;46.510;6.686;2023-02-28T05:54:51;12.25;;;7.88;;
57593;SDS011;43423;46.510;6.686;2023-02-28T05:57:17;16.05;;;8.23;;
57593;SDS011;43423;46.510;6.686;2023-02-28T05:59:42;13.60;;;8.18;;
57593;SDS011;43423;46.510;6.686;2023-02-28T06:02:12;12.75;;;8.30;;
57593;SDS011;43423;46.510;6.686;2023-02-28T06:04:39;12.50;;;7.47;;
57593;SDS011;43423;46.510;6.686;2023-02-28T06:07:06;10.80;;;8.10;;
57593;SDS011;43423;46.510;6.686;2023-02-28T06:09:32;13.90;;;8.57;;
57593;SDS011;43423;46.510;6.686;2023-02-28T06:11:58;16.42;;;8.65;;
57593;SDS011;43423;46.510;6.686;2023-02-28T06:14:25;15.18;;;9.30;;
57593;SDS011;43423;46.510;6.686;2023-02-28T06:16:51;16.58;;;8.93;;
57593;SDS011;43423;46.510;6.686;2023-02-28T06:19:16;12.27;;;8.02;;
57593;SDS011;43423;46.510;6.686;2023-02-28T06:21:42;16.33;;;8.38;;
57593;SDS011;43423;46.510;6.686;2023-02-28T06:24:08;14.40;;;8.05;;
57593;SDS011;43423;46.510;6.686;2023-02-28T06:26:35;18.67;;;9.48;;
57593;SDS011;43423;46.510;6.686;2023-02-28T06:29:00;15.02;;;8.70;;
57593;SDS011;43423;46.510;6.686;2023-02-28T06:31:26;13.40;;;8.52;;
57593;SDS011;43423;46.510;6.686;2023-02-28T06:33:54;11.57;;;7.70;;
57593;SDS011;43423;46.510;6.686;2023-02-28T06:36:20;13.30;;;8.40;;
57593;SDS011;43423;46.510;6.686;2023-02-28T06:38:46;14.70;;;8.32;;
57593;SDS011;43423;46.510;6.686;2023-02-28T06:41:16;17.42;;;8.93;;
57593;SDS011;43423;46.510;6.686;2023-02-28T06:43:42;14.70;;;8.43;;
57593;SDS011;43423;46.510;6.686;2023-02-28T06:46:11;16.13;;;8.63;;
57593;SDS011;43423;46.510;6.686;2023-02-28T06:48:38;14.85;;;8.32;;
57593;SDS011;43423;46.510;6.686;2023-02-28T06:51:05;15.32;;;8.52;;
57593;SDS011;43423;46.510;6.686;2023-02-28T06:53:34;14.75;;;9.13;;
57593;SDS011;43423;46.510;6.686;2023-02-28T06:56:02;14.82;;;8.93;;
57593;SDS011;43423;46.510;6.686;2023-02-28T06:58:29;16.83;;;8.60;;
57593;SDS011;43423;46.510;6.686;2023-02-28T07:00:54;12.88;;;8.27;;
57593;SDS011;43423;46.510;6.686;2023-02-28T07:03:20;16.20;;;8.82;;
57593;SDS011;43423;46.510;6.686;2023-02-28T07:05:46;15.95;;;9.10;;
57593;SDS011;43423;46.510;6.686;2023-02-28T07:08:11;19.58;;;10.73;;
57593;SDS011;43423;46.510;6.686;2023-02-28T07:10:37;21.00;;;10.85;;
57593;SDS011;43423;46.510;6.686;2023-02-28T07:13:03;17.15;;;9.27;;
57593;SDS011;43423;46.510;6.686;2023-02-28T07:15:30;13.73;;;8.88;;
57593;SDS011;43423;46.510;6.686;2023-02-28T07:17:56;16.25;;;9.32;;
57593;SDS011;43423;46.510;6.686;2023-02-28T07:20:22;16.95;;;10.25;;
57593;SDS011;43423;46.510;6.686;2023-02-28T07:22:48;16.38;;;9.30;;
57593;SDS011;43423;46.510;6.686;2023-02-28T07:25:21;15.00;;;8.52;;
57593;SDS011;43423;46.510;6.686;2023-02-28T07:27:50;15.15;;;9.77;;
57593;SDS011;43423;46.510;6.686;2023-02-28T07:30:16;16.15;;;8.90;;
57593;SDS011;43423;46.510;6.686;2023-02-28T07:32:41;16.25;;;9.15;;
57593;SDS011;43423;46.510;6.686;2023-02-28T07:35:07;19.48;;;10.27;;
57593;SDS011;43423;46.510;6.686;2023-02-28T07:37:33;14.88;;;9.15;;
57593;SDS011;43423;46.510;6.686;2023-02-28T07:40:05;14.43;;;8.20;;
57593;SDS011;43423;46.510;6.686;2023-02-28T07:42:36;16.90;;;9.38;;
57593;SDS011;43423;46.510;6.686;2023-02-28T07:45:03;13.80;;;8.60;;
57593;SDS011;43423;46.510;6.686;2023-02-28T07:47:30;18.33;;;9.60;;
57593;SDS011;43423;46.510;6.686;2023-02-28T07:49:56;15.80;;;9.07;;
57593;SDS011;43423;46.510;6.686;2023-02-28T07:52:22;16.10;;;9.57;;
57593;SDS011;43423;46.510;6.686;2023-02-28T07:54:49;17.17;;;9.93;;
57593;SDS011;43423;46.510;6.686;2023-02-28T07:57:15;15.07;;;9.15;;
57593;SDS011;43423;46.510;6.686;2023-02-28T07:59:41;17.60;;;9.70;;
57593;SDS011;43423;46.510;6.686;2023-02-28T08:02:06;14.73;;;8.57;;
57593;SDS011;43423;46.510;6.686;2023-02-28T08:04:35;12.77;;;8.13;;
57593;SDS011;43423;46.510;6.686;2023-02-28T08:07:01;15.02;;;8.88;;
57593;SDS011;43423;46.510;6.686;2023-02-28T08:09:26;15.88;;;8.70;;
57593;SDS011;43423;46.510;6.686;2023-02-28T08:11:52;17.70;;;9.02;;
57593;SDS011;43423;46.510;6.686;2023-02-28T08:14:17;20.52;;;9.98;;
57593;SDS011;43423;46.510;6.686;2023-02-28T08:16:43;17.90;;;8.77;;
57593;SDS011;43423;46.510;6.686;2023-02-28T08:19:09;16.13;;;8.77;;
57593;SDS011;43423;46.510;6.686;2023-02-28T08:21:34;14.77;;;8.77;;
57593;SDS011;43423;46.510;6.686;2023-02-28T08:24:00;16.00;;;9.18;;
57593;SDS011;43423;46.510;6.686;2023-02-28T08:26:26;15.65;;;8.88;;
57593;SDS011;43423;46.510;6.686;2023-02-28T08:28:51;16.13;;;9.57;;
57593;SDS011;43423;46.510;6.686;2023-02-28T08:31:17;19.33;;;10.18;;
57593;SDS011;43423;46.510;6.686;2023-02-28T08:33:43;17.20;;;9.35;;
57593;SDS011;43423;46.510;6.686;2023-02-28T08:36:10;16.40;;;9.15;;
57593;SDS011;43423;46.510;6.686;2023-02-28T08:38:37;19.83;;;8.85;;
57593;SDS011;43423;46.510;6.686;2023-02-28T08:41:04;15.35;;;9.10;;
57593;SDS011;43423;46.510;6.686;2023-02-28T08:43:32;16.75;;;9.45;;
57593;SDS011;43423;46.510;6.686;2023-02-28T08:45:59;14.57;;;8.80;;
57593;SDS011;43423;46.510;6.686;2023-02-28T08:48:25;18.90;;;9.00;;
57593;SDS011;43423;46.510;6.686;2023-02-28T08:51:11;16.27;;;9.35;;
57593;SDS011;43423;46.510;6.686;2023-02-28T08:53:43;17.55;;;9.48;;
57593;SDS011;43423;46.510;6.686;2023-02-28T08:56:11;15.63;;;9.18;;
57593;SDS011;43423;46.510;6.686;2023-02-28T08:58:37;18.38;;;10.13;;
57593;SDS011;43423;46.510;6.686;2023-02-28T09:01:11;18.02;;;10.65;;
57593;SDS011;43423;46.510;6.686;2023-02-28T09:03:38;15.27;;;9.77;;
57593;SDS011;43423;46.510;6.686;2023-02-28T09:06:06;14.48;;;9.27;;
57593;SDS011;43423;46.510;6.686;2023-02-28T09:08:31;16.35;;;9.07;;
57593;SDS011;43423;46.510;6.686;2023-02-28T09:10:57;16.83;;;9.73;;
57593;SDS011;43423;46.510;6.686;2023-02-28T09:13:26;21.02;;;9.80;;
57593;SDS011;43423;46.510;6.686;2023-02-28T09:15:52;15.13;;;9.95;;
57593;SDS011;43423;46.510;6.686;2023-02-28T09:18:18;18.55;;;10.15;;
57593;SDS011;43423;46.510;6.686;2023-02-28T09:20:44;17.33;;;8.77;;
57593;SDS011;43423;46.510;6.686;2023-02-28T09:23:11;20.42;;;9.98;;
57593;SDS011;43423;46.510;6.686;2023-02-28T09:25:38;17.52;;;9.82;;
57593;SDS011;43423;46.510;6.686;2023-02-28T09:28:09;17.23;;;9.05;;
57593;SDS011;43423;46.510;6.686;2023-02-28T09:30:35;15.18;;;9.15;;
57593;SDS011;43423;46.510;6.686;2023-02-28T09:33:00;18.02;;;9.57;;
57593;SDS011;43423;46.510;6.686;2023-02-28T09:35:26;17.05;;;9.60;;
57593;SDS011;43423;46.510;6.686;2023-02-28T09:37:52;16.48;;;9.07;;
57593;SDS011;43423;46.510;6.686;2023-02-28T09:40:22;15.05;;;9.50;;
57593;SDS011;43423;46.510;6.686;2023-02-28T09:45:24;18.50;;;9.73;;
57593;SDS011;43423;46.510;6.686;2023-02-28T09:47:54;20.52;;;10.10;;
57593;SDS011;43423;46.510;6.686;2023-02-28T09:52:59;16.00;;;9.20;;
57593;SDS011;43423;46.510;6.686;2023-02-28T09:55:45;20.50;;;10.75;;
57593;SDS011;43423;46.510;6.686;2023-02-28T09:58:22;17.67;;;9.55;;
57593;SDS011;43423;46.510;6.686;2023-02-28T10:00:56;16.67;;;10.05;;
57593;SDS011;43423;46.510;6.686;2023-02-28T10:06:07;16.48;;;8.75;;
57593;SDS011;43423;46.510;6.686;2023-02-28T10:08:36;17.35;;;10.13;;
57593;SDS011;43423;46.510;6.686;2023-02-28T10:11:09;15.65;;;9.60;;
57593;SDS011;43423;46.510;6.686;2023-02-28T10:16:17;14.88;;;9.70;;
57593;SDS011;43423;46.510;6.686;2023-02-28T10:18:50;18.90;;;9.48;;
57593;SDS011;43423;46.510;6.686;2023-02-28T10:21:21;16.30;;;9.60;;
57593;SDS011;43423;46.510;6.686;2023-02-28T10:26:14;15.93;;;9.65;;
57593;SDS011;43423;46.510;6.686;2023-02-28T10:28:42;16.65;;;10.20;;
57593;SDS011;43423;46.510;6.686;2023-02-28T10:31:15;18.35;;;10.05;;
57593;SDS011;43423;46.510;6.686;2023-02-28T10:33:43;15.73;;;10.10;;
57593;SDS011;43423;46.510;6.686;2023-02-28T10:36:16;17.08;;;9.30;;
57593;SDS011;43423;46.510;6.686;2023-02-28T10:38:44;15.85;;;9.80;;
57593;SDS011;43423;46.510;6.686;2023-02-28T10:41:13;17.08;;;10.25;;
57593;SDS011;43423;46.510;6.686;2023-02-28T10:43:42;17.20;;;9.43;;
57593;SDS011;43423;46.510;6.686;2023-02-28T10:46:11;18.33;;;9.93;;
57593;SDS011;43423;46.510;6.686;2023-02-28T10:49:06;20.40;;;9.37;;
57593;SDS011;43423;46.510;6.686;2023-02-28T10:51:39;19.65;;;9.68;;
57593;SDS011;43423;46.510;6.686;2023-02-28T10:54:14;21.90;;;9.93;;
57593;SDS011;43423;46.510;6.686;2023-02-28T10:56:42;15.48;;;9.73;;
57593;SDS011;43423;46.510;6.686;2023-02-28T11:09:48;18.67;;;10.18;;
57593;SDS011;43423;46.510;6.686;2023-02-28T11:12:29;19.85;;;10.35;;
57593;SDS011;43423;46.510;6.686;2023-02-28T11:15:03;16.60;;;10.05;;
57593;SDS011;43423;46.510;6.686;2023-02-28T11:17:31;15.23;;;10.10;;
57593;SDS011;43423;46.510;6.686;2023-02-28T11:20:07;18.15;;;9.93;;
57593;SDS011;43423;46.510;6.686;2023-02-28T11:22:45;20.17;;;9.93;;
57593;SDS011;43423;46.510;6.686;2023-02-28T11:25:19;18.00;;;10.77;;
57593;SDS011;43423;46.510;6.686;2023-02-28T11:27:49;14.65;;;9.77;;
57593;SDS011;43423;46.510;6.686;2023-02-28T11:35:46;16.67;;;10.60;;
57593;SDS011;43423;46.510;6.686;2023-02-28T11:38:15;24.73;;;11.30;;
57593;SDS011;43423;46.510;6.686;2023-02-28T11:40:46;17.80;;;11.13;;
57593;SDS011;43423;46.510;6.686;2023-02-28T11:43:24;19.08;;;11.20;;
57593;SDS011;43423;46.510;6.686;2023-02-28T11:49:03;17.88;;;11.00;;
57593;SDS011;43423;46.510;6.686;2023-02-28T11:51:47;19.73;;;11.50;;
57593;SDS011;43423;46.510;6.686;2023-02-28T11:54:23;15.80;;;10.80;;
57593;SDS011;43423;46.510;6.686;2023-02-28T11:59:58;17.13;;;11.00;;
57593;SDS011;43423;46.510;6.686;2023-02-28T12:10:35;21.10;;;10.45;;
57593;SDS011;43423;46.510;6.686;2023-02-28T12:18:56;20.08;;;11.65;;
57593;SDS011;43423;46.510;6.686;2023-02-28T12:27:51;20.77;;;10.90;;
57593;SDS011;43423;46.510;6.686;2023-02-28T12:33:05;26.65;;;11.55;;
57593;SDS011;43423;46.510;6.686;2023-02-28T12:35:33;19.00;;;11.90;;
57593;SDS011;43423;46.510;6.686;2023-02-28T12:38:06;16.88;;;10.80;;
57593;SDS011;43423;46.510;6.686;2023-02-28T12:40:47;17.13;;;11.30;;
57593;SDS011;43423;46.510;6.686;2023-02-28T12:43:18;20.02;;;10.60;;
57593;SDS011;43423;46.510;6.686;2023-02-28T12:45:46;20.90;;;11.25;;
57593;SDS011;43423;46.510;6.686;2023-02-28T12:48:28;20.50;;;11.70;;
57593;SDS011;43423;46.510;6.686;2023-02-28T12:50:58;20.35;;;10.98;;
57593;SDS011;43423;46.510;6.686;2023-02-28T12:53:30;19.33;;;11.43;;
57593;SDS011;43423;46.510;6.686;2023-02-28T12:58:43;17.50;;;11.27;;
57593;SDS011;43423;46.510;6.686;2023-02-28T13:01:36;19.33;;;11.60;;
57593;SDS011;43423;46.510;6.686;2023-02-28T13:04:24;20.65;;;11.60;;
57593;SDS011;43423;46.510;6.686;2023-02-28T13:09:38;18.02;;;10.35;;
57593;SDS011;43423;46.510;6.686;2023-02-28T13:12:14;16.05;;;10.48;;
57593;SDS011;43423;46.510;6.686;2023-02-28T13:14:42;18.77;;;10.27;;
57593;SDS011;43423;46.510;6.686;2023-02-28T13:28:10;16.38;;;10.45;;
57593;SDS011;43423;46.510;6.686;2023-02-28T13:38:42;16.65;;;10.23;;
57593;SDS011;43423;46.510;6.686;2023-02-28T13:44:10;17.52;;;11.48;;
57593;SDS011;43423;46.510;6.686;2023-02-28T13:46:36;19.15;;;11.00;;
57593;SDS011;43423;46.510;6.686;2023-02-28T14:06:22;22.58;;;10.55;;
57593;SDS011;43423;46.510;6.686;2023-02-28T14:11:37;19.50;;;10.90;;
57593;SDS011;43423;46.510;6.686;2023-02-28T14:14:04;19.77;;;11.25;;
57593;SDS011;43423;46.510;6.686;2023-02-28T14:16:39;20.15;;;10.75;;
57593;SDS011;43423;46.510;6.686;2023-02-28T14:19:10;19.38;;;10.75;;
57593;SDS011;43423;46.510;6.686;2023-02-28T14:21:43;20.35;;;10.50;;
57593;SDS011;43423;46.510;6.686;2023-02-28T14:27:11;19.35;;;11.85;;
57593;SDS011;43423;46.510;6.686;2023-02-28T14:32:28;18.60;;;10.20;;
57593;SDS011;43423;46.510;6.686;2023-02-28T14:35:17;18.33;;;10.00;;
57593;SDS011;43423;46.510;6.686;2023-02-28T14:37:52;18.40;;;10.25;;
57593;SDS011;43423;46.510;6.686;2023-02-28T14:40:21;17.98;;;10.82;;
57593;SDS011;43423;46.510;6.686;2023-02-28T14:43:03;19.88;;;11.00;;
57593;SDS011;43423;46.510;6.686;2023-02-28T14:45:30;20.70;;;10.98;;
57593;SDS011;43423;46.510;6.686;2023-02-28T14:47:58;19.90;;;10.80;;
57593;SDS011;43423;46.510;6.686;2023-02-28T14:50:27;18.67;;;10.82;;
57593;SDS011;43423;46.510;6.686;2023-02-28T14:52:56;20.60;;;10.68;;
57593;SDS011;43423;46.510;6.686;2023-02-28T14:55:24;18.73;;;12.07;;
57593;SDS011;43423;46.510;6.686;2023-02-28T14:57:54;18.98;;;10.55;;
57593;SDS011;43423;46.510;6.686;2023-02-28T15:00:25;24.33;;;11.43;;
57593;SDS011;43423;46.510;6.686;2023-02-28T15:02:55;20.23;;;10.90;;
57593;SDS011;43423;46.510;6.686;2023-02-28T15:05:27;19.50;;;10.70;;
57593;SDS011;43423;46.510;6.686;2023-02-28T15:08:02;16.85;;;10.27;;
57593;SDS011;43423;46.510;6.686;2023-02-28T15:10:42;20.98;;;11.85;;
57593;SDS011;43423;46.510;6.686;2023-02-28T15:13:13;18.50;;;11.07;;
57593;SDS011;43423;46.510;6.686;2023-02-28T15:21:05;20.80;;;11.10;;
57593;SDS011;43423;46.510;6.686;2023-02-28T15:23:33;20.27;;;10.52;;
57593;SDS011;43423;46.510;6.686;2023-02-28T15:26:01;22.23;;;10.95;;
57593;SDS011;43423;46.510;6.686;2023-02-28T15:28:28;24.30;;;11.50;;
57593;SDS011;43423;46.510;6.686;2023-02-28T15:31:01;20.45;;;10.73;;
57593;SDS011;43423;46.510;6.686;2023-02-28T15:33:51;18.52;;;10.93;;
57593;SDS011;43423;46.510;6.686;2023-02-28T15:36:37;19.42;;;9.98;;
57593;SDS011;43423;46.510;6.686;2023-02-28T15:39:18;23.45;;;10.45;;
57593;SDS011;43423;46.510;6.686;2023-02-28T15:41:48;21.92;;;9.63;;
57593;SDS011;43423;46.510;6.686;2023-02-28T15:44:24;19.10;;;10.60;;
57593;SDS011;43423;46.510;6.686;2023-02-28T15:49:27;17.23;;;10.05;;
57593;SDS011;43423;46.510;6.686;2023-02-28T15:51:54;17.30;;;11.00;;
57593;SDS011;43423;46.510;6.686;2023-02-28T15:54:24;20.40;;;10.77;;
57593;SDS011;43423;46.510;6.686;2023-02-28T15:56:54;18.90;;;10.05;;
57593;SDS011;43423;46.510;6.686;2023-02-28T15:59:23;19.73;;;9.70;;
57593;SDS011;43423;46.510;6.686;2023-02-28T16:02:02;18.90;;;10.43;;
57593;SDS011;43423;46.510;6.686;2023-02-28T16:04:34;16.42;;;9.98;;
57593;SDS011;43423;46.510;6.686;2023-02-28T16:07:01;20.38;;;10.23;;
57593;SDS011;43423;46.510;6.686;2023-02-28T16:09:30;25.70;;;11.45;;
57593;SDS011;43423;46.510;6.686;2023-02-28T16:11:59;17.80;;;9.95;;
57593;SDS011;43423;46.510;6.686;2023-02-28T16:14:29;18.05;;;9.43;;
57593;SDS011;43423;46.510;6.686;2023-02-28T16:16:57;18.52;;;10.50;;
57593;SDS011;43423;46.510;6.686;2023-02-28T16:19:28;16.73;;;9.90;;
57593;SDS011;43423;46.510;6.686;2023-02-28T16:21:54;16.25;;;9.90;;
57593;SDS011;43423;46.510;6.686;2023-02-28T16:24:20;18.27;;;9.98;;
57593;SDS011;43423;46.510;6.686;2023-02-28T16:26:46;19.58;;;11.00;;
57593;SDS011;43423;46.510;6.686;2023-02-28T16:29:19;17.42;;;10.20;;
57593;SDS011;43423;46.510;6.686;2023-02-28T16:31:55;23.08;;;10.38;;
57593;SDS011;43423;46.510;6.686;2023-02-28T16:34:21;17.55;;;10.05;;
57593;SDS011;43423;46.510;6.686;2023-02-28T16:36:47;19.63;;;9.82;;
57593;SDS011;43423;46.510;6.686;2023-02-28T16:39:13;17.90;;;10.35;;
57593;SDS011;43423;46.510;6.686;2023-02-28T16:41:39;19.02;;;10.38;;
57593;SDS011;43423;46.510;6.686;2023-02-28T16:44:10;16.85;;;9.40;;
57593;SDS011;43423;46.510;6.686;2023-02-28T16:46:39;17.13;;;9.40;;
57593;SDS011;43423;46.510;6.686;2023-02-28T16:49:07;18.35;;;10.13;;
57593;SDS011;43423;46.510;6.686;2023-02-28T16:51:36;20.70;;;10.18;;
57593;SDS011;43423;46.510;6.686;2023-02-28T16:54:01;17.20;;;9.27;;
57593;SDS011;43423;46.510;6.686;2023-02-28T16:56:27;20.98;;;10.32;;
57593;SDS011;43423;46.510;6.686;2023-02-28T16:58:53;20.60;;;9.77;;
57593;SDS011;43423;46.510;6.686;2023-02-28T17:01:22;18.90;;;9.75;;
57593;SDS011;43423;46.510;6.686;2023-02-28T17:03:48;17.95;;;9.35;;
57593;SDS011;43423;46.510;6.686;2023-02-28T17:06:19;18.45;;;10.15;;
57593;SDS011;43423;46.510;6.686;2023-02-28T17:08:47;19.52;;;10.02;;
57593;SDS011;43423;46.510;6.686;2023-02-28T17:11:14;16.70;;;10.15;;
57593;SDS011;43423;46.510;6.686;2023-02-28T17:13:40;19.38;;;10.20;;
57593;SDS011;43423;46.510;6.686;2023-02-28T17:16:08;22.10;;;10.95;;